createdAt,value
2019-03-09T00:01:22.472Z,1.57
2019-03-09T00:03:52.117Z,1.40
2019-03-09T00:06:21.932Z,2.02
2019-03-09T00:08:54.574Z,2.65
2019-03-09T00:11:24.243Z,1.27
2019-03-09T00:13:53.871Z,1.55
2019-03-09T00:16:23.505Z,1.57
2019-03-09T00:18:57.738Z,1.95
2019-03-09T00:21:29.202Z,2.45
2019-03-09T00:24:23.458Z,1.27
2019-03-09T00:26:59.807Z,2.02
2019-03-09T00:29:54.049Z,1.77
2019-03-09T00:32:25.688Z,3.15
2019-03-09T00:35:04.425Z,1.27
2019-03-09T00:37:34.042Z,1.85
2019-03-09T00:40:04.094Z,1.40
2019-03-09T00:42:33.748Z,2.47
2019-03-09T00:45:03.467Z,1.92
2019-03-09T00:47:33.208Z,1.72
2019-03-09T00:50:02.910Z,1.67
2019-03-09T00:52:32.545Z,1.55
2019-03-09T00:55:02.184Z,2.10
2019-03-09T00:57:32.861Z,2.20
2019-03-09T01:00:02.483Z,1.67
2019-03-09T01:02:33.852Z,1.90
2019-03-09T01:05:03.614Z,2.58
2019-03-09T01:07:33.212Z,1.20
2019-03-09T01:10:02.859Z,1.42
2019-03-09T01:12:39.482Z,1.80
2019-03-09T01:15:09.610Z,1.65
2019-03-09T01:17:41.236Z,1.70
2019-03-09T01:20:13.058Z,1.82
2019-03-09T01:22:42.683Z,1.57
2019-03-09T01:25:12.404Z,1.98
2019-03-09T01:27:42.024Z,1.35
2019-03-09T01:30:14.838Z,3.60
2019-03-09T01:32:45.752Z,2.02
2019-03-09T01:35:15.430Z,1.77
2019-03-09T01:37:45.056Z,1.90
2019-03-09T01:40:15.480Z,1.50
2019-03-09T01:42:45.155Z,1.75
2019-03-09T01:45:15.132Z,1.60
2019-03-09T01:47:44.744Z,1.12
2019-03-09T01:50:14.958Z,1.62
2019-03-09T01:52:48.743Z,1.45
2019-03-09T01:55:18.374Z,1.80
2019-03-09T01:57:47.989Z,1.50
2019-03-09T02:00:18.188Z,1.52
2019-03-09T02:02:47.980Z,1.60
2019-03-09T02:05:17.693Z,1.40
2019-03-09T02:07:50.317Z,1.27
2019-03-09T02:10:19.956Z,1.60
2019-03-09T02:12:49.587Z,1.80
2019-03-09T02:15:19.222Z,1.47
2019-03-09T02:17:48.828Z,1.00
2019-03-09T02:20:24.596Z,1.22
2019-03-09T02:22:57.002Z,2.33
2019-03-09T02:25:26.630Z,2.67
2019-03-09T02:27:56.250Z,1.25
2019-03-09T02:30:25.874Z,1.77
2019-03-09T02:32:55.468Z,1.37
2019-03-09T02:35:25.081Z,2.08
2019-03-09T02:37:55.054Z,1.87
2019-03-09T02:40:25.574Z,1.32
2019-03-09T02:42:55.255Z,1.72
2019-03-09T02:45:27.661Z,1.20
2019-03-09T02:47:57.307Z,1.07
2019-03-09T02:50:27.019Z,1.70
2019-03-09T02:52:57.619Z,1.30
2019-03-09T02:55:27.253Z,1.25
2019-03-09T02:57:56.869Z,1.60
2019-03-09T03:00:28.205Z,2.02
2019-03-09T03:03:00.992Z,1.20
2019-03-09T03:05:35.028Z,3.20
2019-03-09T03:08:04.717Z,1.25
2019-03-09T03:10:35.942Z,1.27
2019-03-09T03:13:05.556Z,1.98
2019-03-09T03:15:36.194Z,1.10
2019-03-09T03:18:09.157Z,1.67
2019-03-09T03:20:40.374Z,1.62
2019-03-09T03:23:09.997Z,2.80
2019-03-09T03:25:39.943Z,1.50
2019-03-09T03:28:09.785Z,2.12
2019-03-09T03:30:39.559Z,1.45
2019-03-09T03:33:09.511Z,1.67
2019-03-09T03:35:39.138Z,1.82
2019-03-09T03:38:14.118Z,2.30
2019-03-09T03:40:45.586Z,1.67
2019-03-09T03:43:18.023Z,1.55
2019-03-09T03:45:47.628Z,3.12
2019-03-09T03:48:17.240Z,2.10
2019-03-09T03:50:46.887Z,1.85
2019-03-09T03:53:16.499Z,1.77
2019-03-09T03:55:51.224Z,2.17
2019-03-09T03:58:21.314Z,2.10
2019-03-09T04:00:51.181Z,1.35
2019-03-09T04:03:22.444Z,2.22
2019-03-09T04:05:52.216Z,1.15
2019-03-09T04:08:22.786Z,1.52
2019-03-09T04:10:55.691Z,1.30
2019-03-09T04:13:25.384Z,1.50
2019-03-09T04:15:56.621Z,2.15
2019-03-09T04:18:26.221Z,1.70
2019-03-09T04:20:55.837Z,2.10
2019-03-09T04:23:25.553Z,2.45
2019-03-09T04:25:55.231Z,2.08
2019-03-09T04:28:25.040Z,2.60
2019-03-09T04:30:57.499Z,1.37
2019-03-09T04:33:27.119Z,1.27
2019-03-09T04:35:56.729Z,2.00
2019-03-09T04:38:28.588Z,3.27
2019-03-09T04:40:58.209Z,1.42
2019-03-09T04:43:28.659Z,1.75
2019-03-09T04:45:58.288Z,1.50
2019-03-09T04:48:27.896Z,2.80
2019-03-09T04:50:57.516Z,2.40
2019-03-09T04:53:27.200Z,2.00
2019-03-09T04:55:56.816Z,1.60
2019-03-09T04:58:26.443Z,1.72
2019-03-09T05:00:56.052Z,1.12
2019-03-09T05:03:26.026Z,1.70
2019-03-09T05:06:16.528Z,2.37
2019-03-09T05:08:57.471Z,1.15
2019-03-09T05:11:30.250Z,2.22
2019-03-09T05:14:03.855Z,2.00
2019-03-09T05:16:35.626Z,2.42
2019-03-09T05:19:13.791Z,3.70
2019-03-09T05:21:43.454Z,1.82
2019-03-09T05:24:13.077Z,3.17
2019-03-09T05:26:42.691Z,1.98
2019-03-09T05:29:13.405Z,1.60
2019-03-09T05:31:45.764Z,2.52
2019-03-09T05:34:15.450Z,2.25
2019-03-09T05:36:45.086Z,2.02
2019-03-09T05:39:19.368Z,2.27
2019-03-09T05:41:48.980Z,2.05
2019-03-09T05:44:18.597Z,2.12
2019-03-09T05:46:48.201Z,1.70
2019-03-09T05:49:17.822Z,3.00
2019-03-09T05:52:24.831Z,3.47
2019-03-09T05:54:54.456Z,2.60
2019-03-09T05:57:25.252Z,2.40
2019-03-09T05:59:54.865Z,1.90
2019-03-09T06:02:24.480Z,1.32
2019-03-09T06:04:54.091Z,1.25
2019-03-09T06:07:25.392Z,2.00
2019-03-09T06:09:55.099Z,2.50
2019-03-09T06:12:24.711Z,2.75
2019-03-09T06:14:57.426Z,1.77
2019-03-09T06:17:27.109Z,1.60
2019-03-09T06:19:58.397Z,1.52
2019-03-09T06:22:28.099Z,1.65
2019-03-09T06:24:57.814Z,3.25
2019-03-09T06:27:27.451Z,2.62
2019-03-09T06:29:57.101Z,1.65
2019-03-09T06:33:03.058Z,1.55
2019-03-09T06:35:36.500Z,2.15
2019-03-09T06:38:30.588Z,1.40
2019-03-09T06:41:03.147Z,2.83
2019-03-09T06:43:32.550Z,3.08
2019-03-09T06:46:02.185Z,2.52
2019-03-09T06:48:34.287Z,2.15
2019-03-09T06:51:03.920Z,1.47
2019-03-09T06:53:33.558Z,1.75
2019-03-09T06:56:04.664Z,1.62
2019-03-09T06:58:34.290Z,2.90
2019-03-09T07:01:20.625Z,2.40
2019-03-09T07:03:50.508Z,2.08
2019-03-09T07:06:20.125Z,2.55
2019-03-09T07:08:52.326Z,1.95
2019-03-09T07:11:21.973Z,3.00
2019-03-09T07:13:53.154Z,2.33
2019-03-09T07:16:24.318Z,1.45
2019-03-09T07:18:53.949Z,1.65
2019-03-09T07:21:23.589Z,2.22
2019-03-09T07:23:53.845Z,2.35
2019-03-09T07:26:23.498Z,2.20
2019-03-09T07:28:53.159Z,2.70
2019-03-09T07:31:23.164Z,4.10
2019-03-09T07:34:21.774Z,1.87
2019-03-09T07:36:51.407Z,3.02
2019-03-09T07:39:21.352Z,5.08
2019-03-09T07:41:51.069Z,2.35
2019-03-09T07:44:22.224Z,2.10
2019-03-09T07:46:57.295Z,2.05
2019-03-09T07:49:26.896Z,3.25
2019-03-09T07:51:56.665Z,2.33
2019-03-09T07:54:26.302Z,2.50
2019-03-09T07:56:55.923Z,3.15
2019-03-09T07:59:25.583Z,1.60
2019-03-09T08:01:55.254Z,2.83
2019-03-09T08:04:27.712Z,2.10
2019-03-09T08:06:57.331Z,2.70
2019-03-09T08:09:26.964Z,2.92
2019-03-09T08:11:56.597Z,2.35
2019-03-09T08:14:26.221Z,2.33
2019-03-09T08:16:55.850Z,2.33
2019-03-09T08:19:25.573Z,2.15
2019-03-09T08:21:55.233Z,2.75
2019-03-09T08:24:24.874Z,2.22
2019-03-09T08:26:54.491Z,1.95
2019-03-09T08:29:24.121Z,2.58
2019-03-09T08:31:53.758Z,3.37
2019-03-09T08:34:23.386Z,2.10
2019-03-09T08:36:53.131Z,2.65
2019-03-09T08:39:23.221Z,1.67
2019-03-09T08:41:53.364Z,14.20
2019-03-09T08:44:23.121Z,55.73
2019-03-09T08:46:55.824Z,78.20
2019-03-09T08:49:25.508Z,107.27
2019-03-09T08:51:55.148Z,149.80
2019-03-09T08:54:24.849Z,184.30
2019-03-09T08:56:57.585Z,201.07
2019-03-09T08:59:27.256Z,171.30
2019-03-09T09:01:56.982Z,152.25
2019-03-09T09:04:26.601Z,139.88
2019-03-09T09:07:01.334Z,139.47
2019-03-09T09:09:34.833Z,136.97
2019-03-09T09:12:14.716Z,132.40
2019-03-09T09:14:45.186Z,127.17
2019-03-09T09:17:14.861Z,129.50
2019-03-09T09:19:44.573Z,122.05
2019-03-09T09:22:15.546Z,115.60
2019-03-09T09:24:45.283Z,109.37
2019-03-09T09:27:15.010Z,112.45
2019-03-09T09:29:44.899Z,110.05
2019-03-09T09:32:16.752Z,104.85
2019-03-09T09:34:48.727Z,115.47
2019-03-09T09:37:18.372Z,107.22
2019-03-09T09:39:48.111Z,93.80
2019-03-09T09:42:17.855Z,96.78
2019-03-09T09:44:47.498Z,95.15
2019-03-09T09:47:17.108Z,84.65
2019-03-09T09:49:48.328Z,88.90
2019-03-09T09:52:17.962Z,81.47
2019-03-09T09:54:47.607Z,89.28
2019-03-09T09:57:17.285Z,86.75
2019-03-09T09:59:47.157Z,96.70
2019-03-09T10:02:16.800Z,88.55
2019-03-09T10:04:47.543Z,77.53
2019-03-09T10:07:20.958Z,83.12
2019-03-09T10:09:50.604Z,99.62
2019-03-09T10:12:20.255Z,88.05
2019-03-09T10:14:50.198Z,76.00
2019-03-09T10:17:20.996Z,68.97
2019-03-09T10:19:50.648Z,70.40
2019-03-09T10:22:20.326Z,70.83
2019-03-09T10:24:49.975Z,68.05
2019-03-09T10:27:19.732Z,69.00
2019-03-09T10:29:49.356Z,66.80
2019-03-09T10:32:19.067Z,69.35
2019-03-09T10:34:51.852Z,67.87
2019-03-09T10:37:21.484Z,57.40
2019-03-09T10:39:51.115Z,59.35
2019-03-09T10:42:23.678Z,53.92
2019-03-09T10:44:53.310Z,58.52
2019-03-09T10:47:25.790Z,54.70
2019-03-09T10:49:55.417Z,50.40
2019-03-09T10:52:25.061Z,47.90
2019-03-09T10:54:54.702Z,51.30
2019-03-09T10:57:24.330Z,46.25
2019-03-09T10:59:56.865Z,46.55
2019-03-09T11:02:26.554Z,42.70
2019-03-09T11:04:56.200Z,43.25
2019-03-09T11:07:26.192Z,44.25
2019-03-09T11:10:01.944Z,41.53
2019-03-09T11:12:31.612Z,43.33
2019-03-09T11:15:01.233Z,42.58
2019-03-09T11:17:30.937Z,41.70
2019-03-09T11:20:07.370Z,41.73
2019-03-09T11:22:38.907Z,39.53
2019-03-09T11:25:09.082Z,36.80
2019-03-09T11:27:39.994Z,42.25
2019-03-09T11:30:15.492Z,42.08
2019-03-09T11:32:45.115Z,33.18
2019-03-09T11:35:14.730Z,36.75
2019-03-09T11:37:44.384Z,37.05
2019-03-09T11:40:17.031Z,42.48
2019-03-09T11:42:46.650Z,31.93
2019-03-09T11:45:17.514Z,32.00
2019-03-09T11:47:48.117Z,33.67
2019-03-09T11:50:17.892Z,32.33
2019-03-09T11:52:47.594Z,33.10
2019-03-09T11:55:17.409Z,32.78
2019-03-09T11:57:47.103Z,31.68
2019-03-09T12:00:24.042Z,32.83
2019-03-09T12:03:01.308Z,32.78
2019-03-09T12:05:30.977Z,25.25
2019-03-09T12:08:00.651Z,26.00
2019-03-09T12:10:30.441Z,22.90
2019-03-09T12:13:00.098Z,24.72
2019-03-09T12:15:33.958Z,27.52
2019-03-09T12:18:03.614Z,28.17
2019-03-09T12:20:33.296Z,24.47
2019-03-09T12:23:20.474Z,24.70
2019-03-09T12:25:50.274Z,26.95
2019-03-09T12:28:19.972Z,29.18
2019-03-09T12:30:49.596Z,23.70
2019-03-09T12:33:19.304Z,25.23
2019-03-09T12:35:48.926Z,23.98
2019-03-09T12:38:18.554Z,23.57
2019-03-09T12:40:48.176Z,22.52
2019-03-09T12:43:20.338Z,27.40
2019-03-09T12:45:50.001Z,23.30
2019-03-09T12:48:20.784Z,23.15
2019-03-09T12:50:50.491Z,22.05
2019-03-09T12:53:20.111Z,20.23
2019-03-09T12:55:49.734Z,22.67
2019-03-09T12:58:19.386Z,20.90
2019-03-09T13:00:49.018Z,18.12
2019-03-09T13:03:18.892Z,21.07
2019-03-09T13:05:48.660Z,19.60
2019-03-09T13:08:19.541Z,16.52
2019-03-09T13:10:49.167Z,18.45
2019-03-09T13:13:18.893Z,19.12
2019-03-09T13:15:51.143Z,17.85
2019-03-09T13:18:20.830Z,18.80
2019-03-09T13:20:50.686Z,21.33
2019-03-09T13:23:24.388Z,18.92
2019-03-09T13:25:54.060Z,19.15
2019-03-09T13:28:23.679Z,14.58
2019-03-09T13:30:55.624Z,14.80
2019-03-09T13:33:25.321Z,14.18
2019-03-09T13:35:54.940Z,16.60
2019-03-09T13:38:24.575Z,14.78
2019-03-09T13:40:59.136Z,13.88
2019-03-09T13:43:40.611Z,14.90
2019-03-09T13:46:13.034Z,15.38
2019-03-09T13:48:42.659Z,14.63
2019-03-09T13:51:12.590Z,14.60
2019-03-09T13:53:42.227Z,13.20
2019-03-09T13:56:11.862Z,14.73
2019-03-09T13:58:41.560Z,13.72
2019-03-09T14:01:14.214Z,13.90
2019-03-09T14:03:51.485Z,13.30
2019-03-09T14:06:22.095Z,11.60
2019-03-09T14:08:51.807Z,16.60
2019-03-09T14:11:21.487Z,14.00
2019-03-09T14:13:55.749Z,13.62
2019-03-09T14:16:25.427Z,12.80
2019-03-09T14:18:55.040Z,10.65
2019-03-09T14:21:24.684Z,12.90
2019-03-09T14:24:00.069Z,12.82
2019-03-09T14:26:29.993Z,11.55
2019-03-09T14:28:59.616Z,9.88
2019-03-09T14:31:29.254Z,8.88
2019-03-09T14:34:00.699Z,10.00
2019-03-09T14:36:30.384Z,10.85
2019-03-09T14:39:00.220Z,10.88
2019-03-09T14:41:30.101Z,9.00
2019-03-09T14:43:59.853Z,10.10
2019-03-09T14:46:29.551Z,9.20
2019-03-09T14:48:59.189Z,10.38
2019-03-09T14:51:28.832Z,8.55
2019-03-09T14:53:58.448Z,8.43
2019-03-09T14:56:28.136Z,6.75
2019-03-09T14:58:57.866Z,12.30
2019-03-09T15:01:27.492Z,7.42
2019-03-09T15:03:57.158Z,8.20
2019-03-09T15:06:26.772Z,7.05
2019-03-09T15:09:00.769Z,7.22
2019-03-09T15:11:32.091Z,6.45
2019-03-09T15:14:01.704Z,8.38
2019-03-09T15:16:36.960Z,5.95
2019-03-09T15:19:07.022Z,5.28
2019-03-09T15:21:36.662Z,8.18
2019-03-09T15:24:06.280Z,6.92
2019-03-09T15:26:36.004Z,5.87
2019-03-09T15:29:05.751Z,5.78
2019-03-09T15:31:35.378Z,6.78
2019-03-09T15:34:05.128Z,8.83
2019-03-09T15:36:34.754Z,4.03
2019-03-09T15:39:08.368Z,5.83
2019-03-09T15:41:39.638Z,5.28
2019-03-09T15:44:09.322Z,7.03
2019-03-09T15:46:38.976Z,8.40
2019-03-09T15:49:08.850Z,5.75
2019-03-09T15:51:38.472Z,5.20
2019-03-09T15:54:08.103Z,6.10
2019-03-09T15:56:37.732Z,5.85
2019-03-09T15:59:09.804Z,6.12
2019-03-09T16:01:44.686Z,8.18
2019-03-09T16:04:14.355Z,6.75
2019-03-09T16:06:43.987Z,3.47
2019-03-09T16:09:13.860Z,5.37
2019-03-09T16:11:45.332Z,4.28
2019-03-09T16:14:14.961Z,5.55
2019-03-09T16:16:44.671Z,5.70
2019-03-09T16:19:14.351Z,5.70
2019-03-09T16:21:43.999Z,6.97
2019-03-09T16:24:15.838Z,7.33
2019-03-09T16:26:45.492Z,5.42
2019-03-09T16:29:15.139Z,4.72
2019-03-09T16:31:44.773Z,5.08
2019-03-09T16:34:14.482Z,3.95
2019-03-09T16:36:44.106Z,4.83
2019-03-09T16:39:13.740Z,5.17
2019-03-09T16:41:43.375Z,5.30
2019-03-09T16:44:13.056Z,4.60
2019-03-09T16:46:42.680Z,4.90
2019-03-09T16:49:12.303Z,3.92
2019-03-09T16:51:42.146Z,5.00
2019-03-09T16:54:16.933Z,4.22
2019-03-09T16:56:46.567Z,4.75
2019-03-09T16:59:16.190Z,3.52
2019-03-09T17:01:50.508Z,6.12
2019-03-09T17:04:19.840Z,5.53
2019-03-09T17:06:49.471Z,4.65
2019-03-09T17:09:19.098Z,5.60
2019-03-09T17:11:48.708Z,5.70
2019-03-09T17:14:23.521Z,3.35
2019-03-09T17:16:53.144Z,5.28
2019-03-09T17:19:22.791Z,4.45
2019-03-09T17:21:52.422Z,3.90
2019-03-09T17:24:22.080Z,3.35
2019-03-09T17:26:51.718Z,4.25
2019-03-09T17:29:21.347Z,3.15
2019-03-09T17:31:50.978Z,5.28
2019-03-09T17:34:23.554Z,3.47
2019-03-09T17:36:53.171Z,5.50
2019-03-09T17:39:22.785Z,5.75
2019-03-09T17:41:55.518Z,6.67
2019-03-09T17:44:25.147Z,3.58
2019-03-09T17:46:54.804Z,5.58
2019-03-09T17:49:24.443Z,3.85
2019-03-09T17:51:54.077Z,3.17
2019-03-09T17:54:23.694Z,4.50
2019-03-09T17:56:53.319Z,4.25
2019-03-09T17:59:22.924Z,4.03
2019-03-09T18:01:52.587Z,4.40
2019-03-09T18:04:27.375Z,3.70
2019-03-09T18:06:57.004Z,4.62
2019-03-09T18:09:26.633Z,3.27
2019-03-09T18:11:56.239Z,4.12
2019-03-09T18:14:28.383Z,4.00
2019-03-09T18:16:58.005Z,4.47
2019-03-09T18:19:27.710Z,4.22
2019-03-09T18:21:58.611Z,5.42
2019-03-09T18:24:29.348Z,3.55
2019-03-09T18:26:58.945Z,4.00
2019-03-09T18:29:28.566Z,5.08
2019-03-09T18:31:58.185Z,3.42
2019-03-09T18:34:27.818Z,3.00
2019-03-09T18:36:57.459Z,2.98
2019-03-09T18:39:27.086Z,4.05
2019-03-09T18:41:56.782Z,3.87
2019-03-09T18:44:29.280Z,4.87
2019-03-09T18:46:58.898Z,4.22
2019-03-09T18:49:30.142Z,3.15
2019-03-09T18:51:59.774Z,2.75
2019-03-09T18:54:31.312Z,3.25
2019-03-09T18:57:01.999Z,3.40
2019-03-09T18:59:31.603Z,2.98
2019-03-09T19:02:01.220Z,4.67
2019-03-09T19:04:30.921Z,2.77
2019-03-09T19:07:00.544Z,4.53
2019-03-09T19:09:30.147Z,4.47
2019-03-09T19:11:59.770Z,3.72
2019-03-09T19:14:29.406Z,3.52
2019-03-09T19:16:59.096Z,3.40
2019-03-09T19:19:30.332Z,2.87
2019-03-09T19:21:59.951Z,2.90
2019-03-09T19:24:31.474Z,3.17
2019-03-09T19:27:02.372Z,4.70
2019-03-09T19:29:31.989Z,2.50
2019-03-09T19:32:04.846Z,3.75
2019-03-09T19:34:34.508Z,4.70
2019-03-09T19:37:04.119Z,3.10
2019-03-09T19:39:33.732Z,3.40
2019-03-09T19:42:05.139Z,3.87
2019-03-09T19:44:36.375Z,4.47
2019-03-09T19:47:06.070Z,2.00
2019-03-09T19:49:35.743Z,4.20
2019-03-09T19:52:05.372Z,2.77
2019-03-09T19:54:35.016Z,4.42
2019-03-09T19:57:04.764Z,3.30
2019-03-09T19:59:35.349Z,3.22
2019-03-09T20:02:06.682Z,3.05
2019-03-09T20:04:36.322Z,2.37
2019-03-09T20:07:06.090Z,3.87
2019-03-09T20:09:41.350Z,3.30
2019-03-09T20:12:10.982Z,3.30
2019-03-09T20:14:40.618Z,2.30
2019-03-09T20:17:11.336Z,3.77
2019-03-09T20:19:41.051Z,3.95
2019-03-09T20:22:19.122Z,3.52
2019-03-09T20:24:48.910Z,3.90
2019-03-09T20:27:18.535Z,2.58
2019-03-09T20:29:48.148Z,2.30
2019-03-09T20:32:17.851Z,3.25
2019-03-09T20:34:47.525Z,4.75
2019-03-09T20:37:17.181Z,3.02
2019-03-09T20:39:54.472Z,2.02
2019-03-09T20:42:24.104Z,2.60
2019-03-09T20:44:56.389Z,4.50
2019-03-09T20:47:26.021Z,2.80
2019-03-09T20:49:55.690Z,2.77
2019-03-09T20:52:25.349Z,3.08
2019-03-09T20:54:55.003Z,3.70
2019-03-09T20:57:24.682Z,2.67
2019-03-09T20:59:54.398Z,1.72
2019-03-09T21:02:24.110Z,2.30
2019-03-09T21:04:53.848Z,2.85
2019-03-09T21:07:23.662Z,2.98
2019-03-09T21:09:53.653Z,1.85
2019-03-09T21:12:23.280Z,2.95
2019-03-09T21:14:52.943Z,2.58
2019-03-09T21:17:22.571Z,3.17
2019-03-09T21:19:52.270Z,2.27
2019-03-09T21:22:21.925Z,3.33
2019-03-09T21:24:52.899Z,4.65
2019-03-09T21:27:27.990Z,3.90
2019-03-09T21:29:57.619Z,4.37
2019-03-09T21:32:29.050Z,2.60
2019-03-09T21:34:58.756Z,2.70
2019-03-09T21:37:28.383Z,4.55
2019-03-09T21:39:58.029Z,2.00
2019-03-09T21:42:27.642Z,2.60
2019-03-09T21:44:59.074Z,3.75
2019-03-09T21:47:28.695Z,2.70
2019-03-09T21:50:09.028Z,2.83
2019-03-09T21:52:38.739Z,2.40
2019-03-09T21:55:14.419Z,2.30
2019-03-09T21:57:45.074Z,2.58
2019-03-09T22:00:14.890Z,3.65
2019-03-09T22:02:44.659Z,2.42
2019-03-09T22:05:14.365Z,2.05
2019-03-09T22:07:44.025Z,1.77
2019-03-09T22:10:13.738Z,3.72
2019-03-09T22:12:43.499Z,4.37
2019-03-09T22:15:13.241Z,1.92
2019-03-09T22:17:42.862Z,1.80
2019-03-09T22:20:12.666Z,2.92
2019-03-09T22:22:42.480Z,2.77
2019-03-09T22:25:12.194Z,2.98
2019-03-09T22:27:45.091Z,2.58
2019-03-09T22:30:14.851Z,2.05
2019-03-09T22:32:44.568Z,2.95
2019-03-09T22:35:14.473Z,2.58
2019-03-09T22:37:44.105Z,3.77
2019-03-09T22:40:16.765Z,4.85
2019-03-09T22:42:46.417Z,2.05
2019-03-09T22:45:16.191Z,2.87
2019-03-09T22:47:45.839Z,2.95
2019-03-09T22:50:15.864Z,1.85
2019-03-09T22:52:46.448Z,1.90
2019-03-09T22:55:16.138Z,3.05
2019-03-09T22:57:47.348Z,2.20
2019-03-09T23:00:17.900Z,2.85
2019-03-09T23:02:49.250Z,3.60
2019-03-09T23:05:19.066Z,3.75
2019-03-09T23:07:53.184Z,1.90
2019-03-09T23:10:23.026Z,2.77
2019-03-09T23:12:52.762Z,3.70
2019-03-09T23:15:25.561Z,1.85
2019-03-09T23:17:55.244Z,2.83
2019-03-09T23:20:24.875Z,2.67
2019-03-09T23:22:54.502Z,2.20
2019-03-09T23:25:24.274Z,3.33
2019-03-09T23:27:55.187Z,3.67
2019-03-09T23:30:24.940Z,3.37
2019-03-09T23:32:54.717Z,2.35
2019-03-09T23:35:24.466Z,2.33
2019-03-09T23:37:54.111Z,2.87
2019-03-09T23:40:23.892Z,2.70
2019-03-09T23:42:53.787Z,1.95
2019-03-09T23:45:23.571Z,2.27
2019-03-09T23:47:53.375Z,3.35
2019-03-09T23:50:23.240Z,1.90
2019-03-09T23:52:54.292Z,2.90
2019-03-09T23:55:24.934Z,2.27
2019-03-09T23:57:56.171Z,3.50
